Time;durP1;ratioP1;P1;durP2;ratioP2;P2;SDS_P1;SDS_P2;PMS_P1;PMS_P2;Temp;Humidity;BMP_temperature;BMP_pressure;BME280_temperature;BME280_humidity;BME280_pressure;Samples;Min_cycle;Max_cycle;Signal;HPM_P1;HPM_P2
2021/04/25 00:04:31;;;;;;;4.28;0.88;;;6.60;99.90;;;;;;13087966;22;20007;-83
2021/04/25 00:09:32;;;;;;;3.10;1.10;;;6.70;99.90;;;;;;13089633;22;20098;-83
2021/04/25 00:14:33;;;;;;;3.67;1.00;;;6.80;99.90;;;;;;13063404;22;20014;-81
2021/04/25 00:19:33;;;;;;;2.83;1.10;;;6.80;99.90;;;;;;13089570;22;20039;-81
2021/04/25 00:24:34;;;;;;;2.35;0.77;;;6.90;99.90;;;;;;13089223;22;20525;-81
2021/04/25 00:29:35;;;;;;;6.30;1.60;;;6.90;99.90;;;;;;13087425;22;20080;-81
2021/04/25 00:34:35;;;;;;;3.22;1.30;;;6.90;99.90;;;;;;13062357;22;20030;-81
2021/04/25 00:39:36;;;;;;;2.78;0.85;;;6.90;99.90;;;;;;13063282;22;20037;-81
2021/04/25 00:44:37;;;;;;;2.60;1.38;;;6.90;99.90;;;;;;13086958;22;20148;-82
2021/04/25 00:49:37;;;;;;;3.53;1.45;;;6.90;99.90;;;;;;13087157;22;20832;-83
2021/04/25 00:54:39;;;;;;;2.97;1.05;;;6.90;99.90;;;;;;13085203;22;20436;-83
2021/04/25 00:59:41;;;;;;;2.80;1.60;;;7.00;99.90;;;;;;13083671;22;20018;-83
2021/04/25 01:04:42;;;;;;;5.32;2.05;;;7.10;99.90;;;;;;13084262;22;20014;-84
2021/04/25 01:09:43;;;;;;;5.07;1.13;;;7.00;99.90;;;;;;13058170;22;20049;-84
2021/04/25 01:14:43;;;;;;;3.50;1.00;;;7.00;99.90;;;;;;13058599;22;20010;-83
2021/04/25 01:19:44;;;;;;;3.20;1.42;;;7.10;99.90;;;;;;13083287;22;20065;-83
2021/04/25 01:24:44;;;;;;;3.17;1.20;;;7.10;99.90;;;;;;13058870;22;20021;-84
2021/04/25 01:29:45;;;;;;;2.60;1.13;;;7.10;99.90;;;;;;13085078;22;20287;-83
2021/04/25 01:34:46;;;;;;;8.18;1.60;;;7.10;99.90;;;;;;13083902;22;20014;-84
2021/04/25 01:39:46;;;;;;;4.22;1.40;;;7.10;99.90;;;;;;13059319;22;20052;-84
2021/04/25 01:44:47;;;;;;;3.25;0.65;;;7.00;99.90;;;;;;13059511;22;20011;-84
2021/04/25 01:49:48;;;;;;;2.03;1.00;;;7.00;99.90;;;;;;13058955;22;20037;-84
2021/04/25 01:54:48;;;;;;;2.45;1.00;;;7.10;99.90;;;;;;13059140;22;20392;-83
2021/04/25 01:59:49;;;;;;;6.05;1.10;;;7.00;99.90;;;;;;13109765;22;20037;-83
2021/04/25 02:04:49;;;;;;;3.25;0.85;;;7.00;99.90;;;;;;13087729;22;20033;-83
2021/04/25 02:09:50;;;;;;;1.45;0.60;;;7.00;99.90;;;;;;13084604;22;20015;-83
2021/04/25 02:14:52;;;;;;;4.05;0.95;;;7.00;99.90;;;;;;13098150;22;20376;-83
2021/04/25 02:19:53;;;;;;;2.55;1.33;;;7.10;99.90;;;;;;13096500;22;20014;-83
2021/04/25 02:24:53;;;;;;;5.07;1.30;;;7.10;99.90;;;;;;13072218;22;20094;-81
2021/04/25 02:29:54;;;;;;;2.97;1.15;;;7.10;99.90;;;;;;13096806;22;20019;-82
2021/04/25 02:34:55;;;;;;;1.80;1.10;;;7.10;99.90;;;;;;12983185;22;20029;-81
2021/04/25 02:39:55;;;;;;;2.80;0.57;;;7.10;99.90;;;;;;13104843;22;20488;-81
2021/04/25 02:44:56;;;;;;;6.57;0.82;;;7.10;99.90;;;;;;13027099;22;20006;-81
2021/04/25 02:49:57;;;;;;;1.80;0.60;;;7.10;99.90;;;;;;13055296;22;20014;-81
2021/04/25 02:54:57;;;;;;;1.92;0.68;;;7.10;99.90;;;;;;13080851;22;20014;-81
2021/04/25 02:59:58;;;;;;;3.45;0.40;;;7.10;99.90;;;;;;13055744;22;20090;-81
2021/04/25 03:04:58;;;;;;;3.05;0.55;;;7.10;99.90;;;;;;13051201;22;20015;-81
2021/04/25 03:09:59;;;;;;;5.18;0.60;;;7.20;99.90;;;;;;13052256;22;20015;-81
2021/04/25 03:15:01;;;;;;;1.48;0.50;;;7.20;99.90;;;;;;13054143;22;20022;-81
2021/04/25 03:20:04;;;;;;;1.98;0.63;;;7.20;99.90;;;;;;13054313;22;20007;-81
2021/04/25 03:25:07;;;;;;;0.95;0.45;;;7.20;99.90;;;;;;13105235;22;20011;-81
2021/04/25 03:30:11;;;;;;;1.00;0.30;;;7.30;99.90;;;;;;13079637;22;20018;-81
2021/04/25 03:35:14;;;;;;;0.82;0.30;;;7.40;99.90;;;;;;13105847;22;20283;-81
2021/04/25 03:40:18;;;;;;;2.28;0.63;;;7.40;99.90;;;;;;13054063;22;20011;-81
2021/04/25 03:45:19;;;;;;;2.70;0.55;;;7.30;99.90;;;;;;13078471;22;20010;-81
2021/04/25 03:50:23;;;;;;;1.75;0.68;;;7.30;99.90;;;;;;13077978;22;20006;-81
2021/04/25 03:55:24;;;;;;;2.72;0.32;;;7.30;99.90;;;;;;13105725;22;20383;-81
2021/04/25 04:00:25;;;;;;;2.10;0.40;;;7.30;99.90;;;;;;13052508;22;20022;-81
2021/04/25 04:05:25;;;;;;;2.30;0.50;;;7.30;99.90;;;;;;13056311;22;20011;-81
2021/04/25 04:10:26;;;;;;;2.55;0.43;;;7.40;99.90;;;;;;13083197;22;20058;-81
2021/04/25 04:15:27;;;;;;;0.60;0.32;;;7.30;99.90;;;;;;13081309;22;20425;-81
2021/04/25 04:20:27;;;;;;;1.05;0.43;;;7.30;99.90;;;;;;13081351;22;20021;-81
2021/04/25 04:25:28;;;;;;;1.90;0.75;;;7.30;99.90;;;;;;13056501;22;20018;-81
2021/04/25 04:30:29;;;;;;;2.65;0.70;;;7.30;99.90;;;;;;13080751;22;20015;-81
2021/04/25 04:35:30;;;;;;;2.55;0.30;;;7.20;99.90;;;;;;13053103;22;20054;-81
2021/04/25 04:40:30;;;;;;;3.08;0.45;;;7.10;99.90;;;;;;13080664;22;20021;-82
2021/04/25 04:45:31;;;;;;;1.90;0.47;;;7.10;99.90;;;;;;13052225;22;20015;-82
2021/04/25 04:50:31;;;;;;;3.92;0.82;;;7.10;99.90;;;;;;13080015;22;20021;-81
2021/04/25 04:55:32;;;;;;;1.15;0.60;;;7.00;99.90;;;;;;13053926;22;20026;-81
2021/04/25 05:00:33;;;;;;;3.28;0.52;;;7.00;99.90;;;;;;13051489;22;20030;-81
2021/04/25 05:05:33;;;;;;;3.00;0.55;;;7.10;99.90;;;;;;13055106;22;20345;-81
2021/04/25 05:10:34;;;;;;;2.65;0.60;;;7.00;99.90;;;;;;13054195;22;20011;-81
2021/04/25 05:15:36;;;;;;;2.20;1.17;;;7.00;99.90;;;;;;13078202;22;20014;-83
2021/04/25 05:20:37;;;;;;;1.73;0.50;;;7.10;99.90;;;;;;13051468;22;20017;-83
2021/04/25 05:25:38;;;;;;;1.00;0.30;;;7.00;99.90;;;;;;13077174;22;20026;-82
2021/04/25 05:30:38;;;;;;;0.60;0.20;;;7.10;99.90;;;;;;13079349;22;20441;-82
2021/04/25 05:35:39;;;;;;;1.77;0.47;;;7.10;99.90;;;;;;13079082;22;20071;-83
2021/04/25 05:40:40;;;;;;;5.80;0.77;;;7.20;99.90;;;;;;13105350;22;20082;-82
2021/04/25 05:45:41;;;;;;;3.08;0.68;;;7.10;99.90;;;;;;13077197;22;20084;-82
2021/04/25 05:50:42;;;;;;;2.10;0.30;;;7.20;99.90;;;;;;13076994;22;20032;-82
2021/04/25 05:55:43;;;;;;;4.13;0.43;;;7.30;99.90;;;;;;13076087;22;20026;-82
2021/04/25 06:00:43;;;;;;;1.58;0.65;;;7.40;99.90;;;;;;13074625;22;20022;-82
2021/04/25 06:05:44;;;;;;;1.25;0.32;;;7.30;99.90;;;;;;13075602;22;20418;-83
2021/04/25 06:10:45;;;;;;;2.05;0.38;;;7.30;99.90;;;;;;13077285;22;20006;-82
2021/04/25 06:15:46;;;;;;;1.27;0.70;;;7.30;99.90;;;;;;13076334;22;20011;-82
2021/04/25 06:20:46;;;;;;;3.50;0.52;;;7.20;99.90;;;;;;13075448;22;20025;-82
2021/04/25 06:25:47;;;;;;;1.95;0.70;;;7.30;99.90;;;;;;13077652;22;20042;-82
2021/04/25 06:30:48;;;;;;;1.05;0.30;;;7.30;99.90;;;;;;13103451;22;20090;-82
2021/04/25 06:35:49;;;;;;;0.75;0.32;;;7.30;99.90;;;;;;13075294;22;20361;-82
2021/04/25 06:40:50;;;;;;;4.70;0.75;;;7.30;99.90;;;;;;13102771;22;20437;-82
2021/04/25 06:45:50;;;;;;;0.90;0.50;;;7.40;99.90;;;;;;13080125;22;20030;-82
2021/04/25 06:50:51;;;;;;;1.60;0.40;;;7.40;99.90;;;;;;13105783;22;20010;-81
2021/04/25 06:55:51;;;;;;;1.55;0.68;;;7.40;99.90;;;;;;13099450;22;20025;-82
2021/04/25 07:00:52;;;;;;;1.75;0.88;;;7.40;99.90;;;;;;13048219;22;20011;-82
2021/04/25 07:05:53;;;;;;;1.38;0.30;;;7.60;99.90;;;;;;13076671;22;20019;-81
2021/04/25 07:10:54;;;;;;;0.85;0.38;;;7.70;99.90;;;;;;13076140;22;20050;-82
2021/04/25 07:15:54;;;;;;;2.80;0.68;;;7.70;99.90;;;;;;13049653;22;20022;-84
2021/04/25 07:20:55;;;;;;;1.60;0.50;;;7.70;99.90;;;;;;13079791;22;20015;-82
2021/04/25 07:25:56;;;;;;;1.88;0.30;;;7.80;99.90;;;;;;13075607;22;20006;-82
2021/04/25 07:30:57;;;;;;;2.67;0.63;;;7.90;99.90;;;;;;13101859;22;20022;-83
2021/04/25 07:35:58;;;;;;;1.35;0.50;;;7.90;99.90;;;;;;13102081;22;20108;-83
2021/04/25 07:40:58;;;;;;;1.83;0.43;;;8.00;99.90;;;;;;13078907;22;20026;-82
2021/04/25 07:45:59;;;;;;;1.50;0.40;;;8.10;99.90;;;;;;13078199;22;20385;-82
2021/04/25 07:51:00;;;;;;;2.08;0.47;;;8.10;99.90;;;;;;13053076;22;20014;-82
2021/04/25 07:56:01;;;;;;;3.28;0.20;;;8.00;99.90;;;;;;13077968;22;20037;-82
2021/04/25 08:01:02;;;;;;;1.30;0.50;;;8.10;99.90;;;;;;13076431;22;20118;-82
2021/04/25 08:06:05;;;;;;;0.82;0.30;;;8.20;99.90;;;;;;13078168;22;20375;-86
2021/04/25 08:11:06;;;;;;;6.50;0.80;;;8.30;99.90;;;;;;13052641;22;20017;-82
2021/04/25 08:16:07;;;;;;;0.77;0.40;;;8.40;99.90;;;;;;13053271;22;20014;-81
2021/04/25 08:21:08;;;;;;;4.15;0.47;;;8.50;99.90;;;;;;13077831;22;20444;-81
2021/04/25 08:26:09;;;;;;;1.95;0.95;;;8.50;99.90;;;;;;13105407;22;20018;-81
2021/04/25 08:31:09;;;;;;;5.53;0.65;;;8.50;99.90;;;;;;13051103;22;20024;-81
2021/04/25 08:36:10;;;;;;;1.63;0.45;;;8.50;99.90;;;;;;13075050;22;20048;-81
2021/04/25 08:41:15;;;;;;;2.65;1.33;;;8.60;99.90;;;;;;13052390;22;20057;-81
2021/04/25 08:46:20;;;;;;;1.60;0.38;;;8.70;99.90;;;;;;13080248;22;20014;-84
2021/04/25 08:51:22;;;;;;;3.90;0.90;;;8.60;99.90;;;;;;13106463;22;20013;-84
2021/04/25 08:56:22;;;;;;;1.45;0.40;;;8.80;99.90;;;;;;13106896;22;20393;-84
2021/04/25 09:01:23;;;;;;;7.95;0.50;;;8.90;99.90;;;;;;13079222;22;20035;-82
2021/04/25 09:06:24;;;;;;;2.97;1.15;;;9.00;99.90;;;;;;13079582;22;20081;-81
2021/04/25 09:11:35;;;;;;;1.98;0.57;;;9.20;99.90;;;;;;13115427;22;20018;-81
2021/04/25 09:16:36;;;;;;;1.30;0.30;;;9.20;99.90;;;;;;13079770;22;20116;-83
2021/04/25 09:21:58;;;;;;;0.68;0.38;;;9.50;99.90;;;;;;13053562;22;20087;-83
2021/04/25 09:27:00;;;;;;;0.90;0.28;;;9.80;99.90;;;;;;13107878;22;20018;-84
2021/04/25 09:32:00;;;;;;;1.88;0.47;;;10.00;99.90;;;;;;13042082;22;20030;-82
2021/04/25 09:37:23;;;;;;;2.78;0.90;;;10.00;99.90;;;;;;13074308;22;20540;-80
2021/04/25 09:42:24;;;;;;;0.63;0.30;;;9.90;99.90;;;;;;13076567;22;20084;-83
2021/04/25 09:47:32;;;;;;;1.42;0.30;;;9.90;99.90;;;;;;13078378;22;20011;-81
2021/04/25 09:52:38;;;;;;;0.70;0.30;;;9.90;99.90;;;;;;13104093;22;20094;-82
2021/04/25 09:57:39;;;;;;;2.40;0.77;;;9.90;99.90;;;;;;13102486;22;20450;-90
2021/04/25 10:03:00;;;;;;;1.58;0.40;;;9.80;99.90;;;;;;13074463;22;20007;-85
2021/04/25 10:08:01;;;;;;;1.45;0.75;;;9.70;99.90;;;;;;13052977;22;20035;-85
2021/04/25 10:13:02;;;;;;;0.77;0.30;;;9.90;99.90;;;;;;13051711;22;20025;-84
2021/04/25 10:18:03;;;;;;;0.80;0.25;;;9.90;99.90;;;;;;13049368;22;20014;-82
2021/04/25 10:23:06;;;;;;;3.10;0.25;;;10.20;99.90;;;;;;13075365;22;20007;-81
2021/04/25 10:28:28;;;;;;;0.82;0.20;;;10.50;99.90;;;;;;13053128;22;20003;-83
2021/04/25 10:33:54;;;;;;;4.45;0.50;;;10.60;99.90;;;;;;13075076;22;20094;-82
2021/04/25 10:38:55;;;;;;;1.85;0.50;;;10.60;99.90;;;;;;13074493;22;20007;-81
2021/04/25 10:44:00;;;;;;;1.17;0.57;;;10.90;99.90;;;;;;13075317;22;20021;-81
2021/04/25 10:49:29;;;;;;;0.68;0.25;;;11.20;99.90;;;;;;13100392;22;20060;-81
2021/04/25 10:54:30;;;;;;;1.17;0.30;;;11.60;99.90;;;;;;13073051;22;20022;-81
2021/04/25 10:59:31;;;;;;;3.13;0.65;;;11.60;99.90;;;;;;13050131;22;20021;-82
2021/04/25 11:04:54;;;;;;;1.90;0.63;;;11.70;99.90;;;;;;13049386;22;20018;-82
2021/04/25 11:09:55;;;;;;;9.00;0.77;;;11.80;99.90;;;;;;13098753;22;20011;-82
2021/04/25 11:14:55;;;;;;;0.75;0.30;;;11.60;99.90;;;;;;13047647;22;20034;-81
2021/04/25 11:19:56;;;;;;;3.33;0.63;;;11.60;99.90;;;;;;13104240;22;20042;-82
2021/04/25 11:25:27;;;;;;;0.73;0.30;;;11.20;99.90;;;;;;13074015;22;20065;-82
2021/04/25 11:30:42;;;;;;;3.20;0.45;;;11.60;99.90;;;;;;13075094;22;20019;-84
2021/04/25 11:35:43;;;;;;;4.88;0.73;;;11.40;99.90;;;;;;13106541;22;20030;-84
2021/04/25 11:40:44;;;;;;;0.55;0.20;;;11.60;99.90;;;;;;13053857;22;20041;-83
2021/04/25 11:45:45;;;;;;;0.90;0.38;;;13.00;97.90;;;;;;13052201;22;20042;-84
2021/04/25 11:50:46;;;;;;;0.60;0.30;;;13.70;95.10;;;;;;13077663;22;20011;-84
2021/04/25 11:55:47;;;;;;;7.03;0.85;;;14.30;95.60;;;;;;13053231;22;20019;-84
2021/04/25 12:00:47;;;;;;;1.20;0.30;;;14.50;91.90;;;;;;13078968;22;20010;-83
2021/04/25 12:05:55;;;;;;;1.95;0.30;;;14.40;94.30;;;;;;13054583;22;20098;-83
2021/04/25 12:10:56;;;;;;;3.20;0.30;;;14.40;94.60;;;;;;13081330;22;20010;-83
2021/04/25 12:16:03;;;;;;;0.68;0.20;;;13.70;93.70;;;;;;13053342;22;20015;-84
2021/04/25 12:21:07;;;;;;;2.90;0.55;;;13.10;96.00;;;;;;13105963;22;20287;-83
2021/04/25 12:26:14;;;;;;;1.75;0.30;;;13.70;94.30;;;;;;13107798;22;20415;-83
2021/04/25 12:31:21;;;;;;;1.50;0.40;;;13.90;93.20;;;;;;13080754;22;20007;-83
2021/04/25 12:36:26;;;;;;;0.52;0.20;;;13.70;93.60;;;;;;13084461;22;20026;-83
2021/04/25 12:41:39;;;;;;;1.05;0.30;;;14.20;91.60;;;;;;13086405;22;20023;-83
2021/04/25 12:46:51;;;;;;;1.00;0.30;;;14.00;92.70;;;;;;13072524;22;20021;-83
2021/04/25 12:51:51;;;;;;;1.33;0.52;;;13.90;94.50;;;;;;13100002;22;20090;-83
2021/04/25 12:56:56;;;;;;;2.80;1.10;;;14.00;92.50;;;;;;13074821;22;20039;-83
2021/04/25 13:01:56;;;;;;;0.93;0.25;;;14.20;92.60;;;;;;13098779;22;20039;-83
2021/04/25 13:07:34;;;;;;;1.33;0.30;;;15.10;91.30;;;;;;13098606;22;20042;-83
2021/04/25 13:12:37;;;;;;;12.63;0.50;;;15.40;83.70;;;;;;13100899;22;20038;-83
2021/04/25 13:17:43;;;;;;;0.85;0.13;;;16.30;81.20;;;;;;13070174;22;20076;-84
2021/04/25 13:22:58;;;;;;;1.73;0.45;;;16.90;73.40;;;;;;13098192;22;20015;-84
2021/04/25 13:28:00;;;;;;;3.08;0.70;;;17.80;70.10;;;;;;13072816;22;20030;-84
2021/04/25 13:33:02;;;;;;;0.90;0.20;;;18.50;62.70;;;;;;13048856;22;20007;-83
2021/04/25 13:38:03;;;;;;;0.50;0.20;;;17.90;65.00;;;;;;13077694;22;20011;-84
2021/04/25 13:43:04;;;;;;;1.13;0.30;;;18.10;63.30;;;;;;13077040;22;20028;-85
2021/04/25 13:48:07;;;;;;;0.30;0.20;;;18.20;63.70;;;;;;13074401;22;20010;-84
2021/04/25 13:53:08;;;;;;;0.52;0.20;;;17.90;62.80;;;;;;13051851;22;19999;-84
2021/04/25 13:58:08;;;;;;;1.88;0.40;;;17.60;62.90;;;;;;13047916;22;20098;-81
2021/04/25 14:03:09;;;;;;;1.77;0.55;;;16.60;65.60;;;;;;13073948;22;20003;-84
2021/04/25 14:08:10;;;;;;;3.15;0.28;;;15.60;69.20;;;;;;13100463;22;20099;-84
2021/04/25 14:13:10;;;;;;;4.38;0.65;;;14.70;76.60;;;;;;13099281;22;20003;-84
2021/04/25 14:18:13;;;;;;;0.73;0.38;;;14.20;81.50;;;;;;13049396;22;20003;-84
2021/04/25 14:23:14;;;;;;;1.52;0.60;;;14.00;84.30;;;;;;13052308;22;20001;-84
2021/04/25 14:28:14;;;;;;;1.48;0.50;;;13.60;87.90;;;;;;13050057;22;20027;-84
2021/04/25 14:33:15;;;;;;;3.25;0.45;;;13.40;92.00;;;;;;13073958;22;20003;-84
2021/04/25 14:38:16;;;;;;;1.25;0.35;;;13.00;91.20;;;;;;13101071;22;20003;-85
2021/04/25 14:43:16;;;;;;;6.47;1.30;;;12.80;94.10;;;;;;13078167;22;20086;-85
2021/04/25 14:48:17;;;;;;;2.40;0.75;;;12.50;96.10;;;;;;13050220;22;20026;-84
2021/04/25 14:53:18;;;;;;;0.98;0.40;;;12.40;97.90;;;;;;13075906;22;20076;-85
2021/04/25 14:58:19;;;;;;;1.33;0.45;;;12.20;97.00;;;;;;13077200;22;20434;-85
2021/04/25 15:03:20;;;;;;;5.00;0.98;;;12.00;98.10;;;;;;13078276;22;20006;-84
2021/04/25 15:08:21;;;;;;;1.05;0.60;;;11.90;99.90;;;;;;13057914;22;20448;-84
2021/04/25 15:13:22;;;;;;;1.65;0.38;;;11.80;99.70;;;;;;13079937;22;20090;-85
2021/04/25 15:18:22;;;;;;;7.30;0.50;;;11.70;99.40;;;;;;13054614;22;20450;-85
2021/04/25 15:23:23;;;;;;;2.13;0.60;;;11.60;99.70;;;;;;13083835;22;20596;-85
2021/04/25 15:28:25;;;;;;;1.27;0.40;;;11.40;99.90;;;;;;13058573;22;20059;-85
2021/04/25 15:33:26;;;;;;;0.90;0.40;;;11.20;99.90;;;;;;13058971;22;20125;-85
2021/04/25 15:38:26;;;;;;;3.83;1.00;;;11.30;99.90;;;;;;13096390;22;20132;-85
2021/04/25 15:43:27;;;;;;;3.40;0.68;;;11.30;99.50;;;;;;13100685;22;20015;-85
2021/04/25 15:48:28;;;;;;;3.72;0.73;;;11.10;99.90;;;;;;13072376;22;20015;-86
2021/04/25 15:53:29;;;;;;;2.15;0.63;;;11.20;99.90;;;;;;13049569;22;20442;-85
2021/04/25 15:58:29;;;;;;;2.75;0.47;;;11.10;99.90;;;;;;13074023;22;20030;-86
2021/04/25 16:03:30;;;;;;;1.05;0.35;;;10.90;99.90;;;;;;13073519;22;20281;-85
2021/04/25 16:08:31;;;;;;;1.75;0.50;;;10.70;99.90;;;;;;13049045;22;20346;-83
2021/04/25 16:13:31;;;;;;;0.52;0.20;;;10.70;99.90;;;;;;13052582;22;20010;-86
2021/04/25 16:18:32;;;;;;;0.35;0.20;;;10.70;99.90;;;;;;13078909;22;20006;-86
2021/04/25 16:23:33;;;;;;;0.75;0.28;;;10.70;99.90;;;;;;13053751;22;20018;-86
2021/04/25 16:28:33;;;;;;;0.73;0.30;;;10.60;99.90;;;;;;13050500;22;20523;-86
2021/04/25 16:33:34;;;;;;;0.60;0.30;;;10.60;99.90;;;;;;13071294;22;20103;-86
2021/04/25 16:38:35;;;;;;;11.55;0.73;;;10.50;99.90;;;;;;13046154;22;20042;-87
2021/04/25 16:43:37;;;;;;;5.05;0.60;;;10.40;99.90;;;;;;13047841;22;20057;-88
2021/04/25 16:48:37;;;;;;;1.13;0.55;;;10.40;99.90;;;;;;13072092;22;20063;-87
2021/04/25 16:53:38;;;;;;;1.08;0.47;;;10.40;99.90;;;;;;13071006;22;20835;-87
2021/04/25 16:58:39;;;;;;;1.55;0.55;;;10.40;99.90;;;;;;13101276;22;20072;-86
2021/04/25 17:03:39;;;;;;;1.00;0.28;;;10.20;99.90;;;;;;13049125;22;20129;-86
2021/04/25 17:08:40;;;;;;;2.60;0.25;;;10.30;99.90;;;;;;13047173;22;20621;-89
2021/04/25 17:13:40;;;;;;;1.00;0.40;;;10.10;99.90;;;;;;13046066;22;20074;-88
2021/04/25 17:18:41;;;;;;;2.65;0.55;;;10.10;99.90;;;;;;13047126;22;20053;-87
2021/04/25 17:23:42;;;;;;;0.90;0.50;;;10.00;99.90;;;;;;13071896;22;20723;-85
2021/04/25 17:28:43;;;;;;;0.60;0.20;;;9.80;99.90;;;;;;13044590;22;20390;-84
2021/04/25 17:33:48;;;;;;;0.45;0.20;;;9.80;99.90;;;;;;13046770;22;20023;-86
2021/04/25 17:38:54;;;;;;;0.57;0.50;;;9.60;99.90;;;;;;13072712;22;20064;-86
2021/04/25 17:43:54;;;;;;;3.58;0.35;;;9.70;99.90;;;;;;13047791;22;20018;-85
2021/04/25 17:48:57;;;;;;;0.55;0.20;;;9.60;99.90;;;;;;13046657;22;20024;-86
2021/04/25 17:54:00;;;;;;;0.75;0.28;;;9.50;99.90;;;;;;13045578;22;20010;-84
2021/04/25 17:59:01;;;;;;;0.40;0.20;;;9.50;99.90;;;;;;13048688;22;20010;-85
2021/04/25 18:04:01;;;;;;;1.98;0.15;;;9.50;99.90;;;;;;13076379;22;20042;-85
2021/04/25 18:09:02;;;;;;;1.42;0.65;;;9.40;99.90;;;;;;13049071;22;20097;-82
2021/04/25 18:14:03;;;;;;;1.90;0.50;;;9.30;99.90;;;;;;13074657;22;20023;-86
2021/04/25 18:19:04;;;;;;;0.75;0.17;;;9.30;99.90;;;;;;13049286;22;20060;-85
2021/04/25 18:24:06;;;;;;;0.88;0.28;;;9.20;99.90;;;;;;13076560;22;20056;-85
2021/04/25 18:29:07;;;;;;;2.53;0.20;;;9.10;99.90;;;;;;13048253;22;21367;-83
2021/04/25 18:34:08;;;;;;;1.60;0.43;;;9.00;99.90;;;;;;13074135;22;20019;-85
2021/04/25 18:39:09;;;;;;;0.90;0.30;;;8.90;99.90;;;;;;13103329;22;20524;-86
2021/04/25 18:44:10;;;;;;;0.90;0.30;;;8.90;99.90;;;;;;13082260;22;20053;-84
2021/04/25 18:49:11;;;;;;;0.52;0.38;;;8.70;99.90;;;;;;13109228;22;20013;-86
2021/04/25 18:54:12;;;;;;;0.68;0.40;;;8.70;99.90;;;;;;13056489;22;20022;-86
2021/04/25 18:59:13;;;;;;;4.47;0.38;;;8.60;99.90;;;;;;13056593;22;20953;-86
2021/04/25 19:04:13;;;;;;;3.83;0.50;;;8.50;99.90;;;;;;13054008;22;20002;-85
2021/04/25 19:09:14;;;;;;;3.10;0.30;;;8.40;99.90;;;;;;13077180;22;20011;-85
2021/04/25 19:14:16;;;;;;;0.88;0.22;;;8.40;99.90;;;;;;13078967;22;20034;-85
2021/04/25 19:19:17;;;;;;;2.35;0.50;;;8.40;99.90;;;;;;13080947;22;20010;-85
2021/04/25 19:24:18;;;;;;;0.73;0.15;;;8.40;99.90;;;;;;13076290;22;20085;-84
2021/04/25 19:29:19;;;;;;;3.10;0.40;;;8.20;99.90;;;;;;13046686;22;20014;-84
2021/04/25 19:34:20;;;;;;;2.95;0.40;;;8.20;99.90;;;;;;13074934;22;20022;-84
2021/04/25 19:39:20;;;;;;;3.80;0.85;;;8.10;99.90;;;;;;13075224;22;20186;-85
2021/04/25 19:44:22;;;;;;;0.80;0.20;;;8.10;99.90;;;;;;13051151;22;20038;-84
2021/04/25 19:49:23;;;;;;;2.38;0.40;;;8.00;99.90;;;;;;13078019;22;20080;-84
2021/04/25 19:54:23;;;;;;;1.23;0.35;;;7.90;99.90;;;;;;13075254;22;20041;-84
2021/04/25 19:59:24;;;;;;;0.32;0.20;;;7.90;99.90;;;;;;13046968;22;20080;-89
2021/04/25 20:04:25;;;;;;;0.68;0.30;;;7.90;99.90;;;;;;13048488;22;20595;-84
2021/04/25 20:09:26;;;;;;;1.65;0.30;;;7.90;99.90;;;;;;13100969;22;20011;-84
2021/04/25 20:14:27;;;;;;;0.63;0.20;;;7.80;99.90;;;;;;13045740;22;20025;-84
2021/04/25 20:19:27;;;;;;;1.42;0.55;;;7.90;99.90;;;;;;13101965;22;20089;-84
2021/04/25 20:24:28;;;;;;;1.27;0.50;;;7.90;99.90;;;;;;13075080;22;20392;-84
2021/04/25 20:29:29;;;;;;;1.17;0.52;;;7.70;99.90;;;;;;13072791;22;20011;-84
2021/04/25 20:34:30;;;;;;;0.68;0.20;;;7.70;99.90;;;;;;13048415;22;20054;-85
2021/04/25 20:39:31;;;;;;;1.05;0.28;;;7.70;99.90;;;;;;13079193;22;20025;-84
2021/04/25 20:44:31;;;;;;;4.10;0.40;;;7.80;99.90;;;;;;13108526;22;20025;-84
2021/04/25 20:49:32;;;;;;;0.40;0.30;;;7.80;99.90;;;;;;13058119;22;20018;-84
2021/04/25 20:54:33;;;;;;;0.98;0.20;;;7.70;99.90;;;;;;13060213;22;20023;-84
2021/04/25 20:59:33;;;;;;;1.65;0.35;;;7.70;99.90;;;;;;13106869;22;20098;-84
2021/04/25 21:04:34;;;;;;;8.82;0.20;;;7.60;99.90;;;;;;13057846;22;20014;-85
2021/04/25 21:09:35;;;;;;;1.77;0.20;;;7.60;99.90;;;;;;13060143;22;20543;-82
2021/04/25 21:14:35;;;;;;;1.42;0.35;;;7.60;99.90;;;;;;13084715;22;20026;-83
2021/04/25 21:19:36;;;;;;;1.27;0.30;;;7.50;99.90;;;;;;13060436;22;20033;-83
2021/04/25 21:24:38;;;;;;;0.57;0.25;;;7.50;99.90;;;;;;13086523;22;20052;-83
2021/04/25 21:29:38;;;;;;;1.73;0.17;;;7.40;99.90;;;;;;13110432;22;20046;-83
2021/04/25 21:34:39;;;;;;;0.68;0.20;;;7.30;99.90;;;;;;13058181;22;20026;-83
2021/04/25 21:39:41;;;;;;;5.85;0.30;;;7.30;99.90;;;;;;13059199;22;20034;-83
2021/04/25 21:44:41;;;;;;;0.63;0.17;;;7.30;99.90;;;;;;13057247;22;20015;-83
2021/04/25 21:49:42;;;;;;;1.48;0.28;;;7.30;99.90;;;;;;13056948;22;20441;-83
2021/04/25 21:54:43;;;;;;;2.35;0.40;;;7.10;99.90;;;;;;13083245;22;20019;-83
2021/04/25 21:59:43;;;;;;;0.25;0.10;;;7.10;99.90;;;;;;13109923;22;20011;-83
2021/04/25 22:04:44;;;;;;;0.65;0.20;;;7.10;99.90;;;;;;13056723;22;20022;-83
2021/04/25 22:09:45;;;;;;;0.63;0.13;;;7.10;99.90;;;;;;13084100;22;20019;-83
2021/04/25 22:14:45;;;;;;;1.58;0.17;;;7.00;99.90;;;;;;13057313;22;20118;-83
2021/04/25 22:19:46;;;;;;;0.55;0.20;;;6.90;99.90;;;;;;13058361;22;20022;-83
2021/04/25 22:24:46;;;;;;;1.17;0.55;;;6.80;99.90;;;;;;13057681;22;20019;-83
2021/04/25 22:29:47;;;;;;;1.88;0.40;;;6.70;99.90;;;;;;13057194;22;20110;-83
2021/04/25 22:34:48;;;;;;;2.17;0.40;;;6.60;99.90;;;;;;13083546;22;20133;-84
2021/04/25 22:39:48;;;;;;;0.95;0.77;;;6.50;99.90;;;;;;13053100;22;20802;-83
2021/04/25 22:44:49;;;;;;;0.50;0.30;;;6.50;99.90;;;;;;13084143;22;20037;-83
2021/04/25 22:49:49;;;;;;;0.80;0.30;;;6.40;99.90;;;;;;13084655;22;20018;-83
2021/04/25 22:54:50;;;;;;;0.57;0.28;;;6.30;99.90;;;;;;13059564;22;20089;-84
2021/04/25 22:59:51;;;;;;;0.60;0.20;;;6.30;99.90;;;;;;13060765;22;20089;-83
2021/04/25 23:04:51;;;;;;;2.10;0.30;;;6.30;99.90;;;;;;13087650;22;20011;-84
2021/04/25 23:09:52;;;;;;;2.65;0.22;;;6.20;99.90;;;;;;13085287;22;20019;-84
2021/04/25 23:14:53;;;;;;;0.43;0.17;;;6.30;99.90;;;;;;13059639;22;20609;-83
2021/04/25 23:19:53;;;;;;;1.13;0.30;;;6.30;99.90;;;;;;13060319;22;20014;-83
2021/04/25 23:24:54;;;;;;;0.30;0.20;;;6.20;99.90;;;;;;13059870;22;20030;-83
2021/04/25 23:29:54;;;;;;;2.85;0.30;;;6.10;99.90;;;;;;13089245;22;20015;-84
2021/04/25 23:34:55;;;;;;;0.65;0.20;;;6.10;99.90;;;;;;13063541;22;20015;-83
2021/04/25 23:39:56;;;;;;;1.30;0.45;;;6.00;99.90;;;;;;13065496;22;20066;-83
2021/04/25 23:44:57;;;;;;;2.35;0.25;;;6.00;99.90;;;;;;13114846;22;20015;-84
2021/04/25 23:49:58;;;;;;;1.70;0.45;;;6.00;99.90;;;;;;13091871;22;20870;-83
2021/04/25 23:54:59;;;;;;;0.88;0.20;;;5.90;99.90;;;;;;13063176;22;20019;-83
2021/04/25 23:59:59;;;;;;;1.83;0.20;;;5.90;99.90;;;;;;13064961;22;20014;-83
